M I D A S
Marine Information and Data Acquisition System
Tripno 428 of the Zeeleeuw from 2003-02-11 07:32:15 to 2003-02-11 15:22:51
Back to CruiseResearch ActivitiesStationsMapUnderway DataData graphs

EquipmentUnitsComment
TimeDGPSUTC
LatitudeDGPSDM.mWGS84
LongitudeDGPSDM.mWGS84
HeadingGyrodeg 
SOGDGPSknotsSpeed over ground
COGDGPSdegCourse over ground
DepthEcho soundermeters200 kHz
Missing or incorrect values are displayed as -999
Navigation data collected by the RV Zeeleeuw from 2003-02-11 07:32:15 to 2003-02-11 15:22:51
Time Latitude Longitude Heading SOG COG Depth
2003-02-11 07:33:19 51°13.631 2°55.988 118.9 4.8 295.3 -999
2003-02-11 07:34:19 51°13.67 2°55.864 119.4 5.3 297.5 -999
2003-02-11 07:35:19 51°13.702 2°55.748 105.9 4.1 289.6 -999
2003-02-11 07:36:19 51°13.715 2°55.735 47.6 1.3 27.6 -999
2003-02-11 07:37:19 51°13.709 2°55.719 20.3 0.9 225.8 -999
2003-02-11 07:38:19 51°13.727 2°55.706 344.1 2.4 336.9 12.7
2003-02-11 07:39:18 51°13.782 2°55.666 340.7 4.1 335 11.5
2003-02-11 07:40:19 51°13.872 2°55.602 340.4 6.5 336.2 11.6
2003-02-11 07:41:19 51°13.978 2°55.526 338.8 7.2 335.2 11.5
2003-02-11 07:42:19 51°14.092 2°55.439 338.7 7.8 334.4 -999
2003-02-11 07:43:19 51°14.21 2°55.338 330.3 8.3 327.1 11.5
2003-02-11 07:44:18 51°14.313 2°55.177 314.9 9.3 311 12
2003-02-11 07:45:18 51°14.431 2°54.993 326.3 10.8 321.3 11.9
2003-02-11 07:46:19 51°14.602 2°54.815 328.5 12.4 327.6 11.3
2003-02-11 07:47:19 51°14.784 2°54.633 328.3 13.1 328 11
2003-02-11 07:48:18 51°14.965 2°54.449 328.5 13.1 327.4 10.4
2003-02-11 07:49:18 51°15.152 2°54.262 329.1 13.3 328 10.4
2003-02-11 07:50:19 51°15.343 2°54.071 329.5 13.4 328.6 11.2
2003-02-11 07:51:18 51°15.525 2°53.88 325.5 13.3 325.1 12
2003-02-11 07:52:19 51°15.717 2°53.668 326 14 325.4 12.7
2003-02-11 07:53:17 51°15.902 2°53.461 325.8 14 324.1 13.4
2003-02-11 07:54:18 51°16.095 2°53.242 326.6 14.1 325.1 13.8
2003-02-11 07:55:18 51°16.292 2°53.04 329.5 14.1 328.2 14.1
2003-02-11 07:56:17 51°16.49 2°52.848 329.5 14.1 328.6 13.7
2003-02-11 07:57:17 51°16.69 2°52.654 329.4 14.1 328.7 12.3
2003-02-11 07:58:18 51°16.897 2°52.467 336.6 14.2 335 11.5
2003-02-11 07:59:19 51°17.129 2°52.346 346.3 14.5 345.3 11.7
2003-02-11 08:00:18 51°17.363 2°52.267 355.6 14.7 352.7 12.1
2003-02-11 08:01:17 51°17.606 2°52.256 0.9 14.8 359 12
2003-02-11 08:02:23 51°17.875 2°52.289 15.1 14.9 11.2 12
2003-02-11 08:03:23 51°18.108 2°52.428 26.3 14.9 22.2 12.3
2003-02-11 08:04:23 51°18.331 2°52.601 38.1 14.9 32.4 12.6
2003-02-11 08:05:23 51°18.528 2°52.835 42.8 14.8 37.8 12.9
2003-02-11 08:06:25 51°18.729 2°53.088 42.8 14.9 37.9 13.1
2003-02-11 08:07:32 51°18.945 2°53.366 46.1 15 40.2 13.4
2003-02-11 08:08:29 51°19.128 2°53.61 45.4 15.1 39.6 13.6
2003-02-11 08:09:32 51°19.33 2°53.878 45 15 39.7 13.8
2003-02-11 08:10:32 51°19.525 2°54.131 44.6 15.1 38.9 13.9
2003-02-11 08:11:30 51°19.713 2°54.375 44.6 15.1 38.9 14.2
2003-02-11 08:12:32 51°19.914 2°54.634 45 15 39.1 14.7
2003-02-11 08:13:29 51°20.1 2°54.872 44.3 15.1 38.5 14.9
2003-02-11 08:14:31 51°20.302 2°55.134 47 15.1 40.5 15.2
2003-02-11 08:15:32 51°20.494 2°55.403 47.3 15.1 40.9 15.3
2003-02-11 08:16:30 51°20.676 2°55.659 47.9 15.1 41.4 15.3
2003-02-11 08:17:30 51°20.865 2°55.921 47.7 15 41.4 15.7
2003-02-11 08:18:31 51°21.056 2°56.19 47.5 15.1 41.5 15.9
2003-02-11 08:19:28 51°21.236 2°56.442 47.1 15.1 41.2 16.2
2003-02-11 08:20:31 51°21.433 2°56.72 47.5 15.1 41.6 16.4
2003-02-11 08:21:29 51°21.616 2°56.977 47.4 15.1 41.1 16.7
2003-02-11 08:22:32 51°21.813 2°57.255 47.6 15 41.8 17.1
2003-02-11 08:23:31 51°21.99 2°57.53 51.8 15.2 45 17.5
2003-02-11 08:24:30 51°22.163 2°57.815 52.6 15.2 45.9 17.9
2003-02-11 08:25:30 51°22.339 2°58.108 52.5 15.2 46.5 18
2003-02-11 08:26:31 51°22.517 2°58.404 52.5 15.2 46.7 18.2
2003-02-11 08:27:31 51°22.687 2°58.704 55.9 15.2 49.2 18.5
2003-02-11 08:28:37 51°22.869 2°59.04 56.3 15.2 49.6 18.6
2003-02-11 08:29:35 51°23.028 2°59.337 55.8 15.2 49.3 18.6
2003-02-11 08:30:36 51°23.192 2°59.642 56.2 14.5 49.5 19.1
2003-02-11 08:31:36 51°23.344 2°59.856 45.8 11.6 36.9 19.5
2003-02-11 08:32:37 51°23.355 3°0.044 140.8 5.2 116 19.4
2003-02-11 08:33:36 51°23.311 3°0.072 216 2.4 203.1 18.9
2003-02-11 08:34:36 51°23.284 3°0.028 221.9 2.1 225 18.9
2003-02-11 08:35:36 51°23.264 3°0.003 211.6 1.3 211.2 18.8
2003-02-11 08:36:36 51°23.252 2°59.989 221.5 0.8 231.3 18.8
2003-02-11 08:37:36 51°23.249 2°59.967 237 0.9 266.9 18.9
2003-02-11 08:38:36 51°23.253 2°59.941 249.1 1.1 289 18.8
2003-02-11 08:39:36 51°23.261 2°59.912 246.3 1.1 295.8 19
2003-02-11 08:40:35 51°23.266 2°59.892 231.8 0.6 290.4 19.1
2003-02-11 08:41:36 51°23.269 2°59.882 217.7 0.3 299.8 19.1
2003-02-11 08:42:37 51°23.27 2°59.88 203.1 0.1 13.5 19.1
2003-02-11 08:43:36 51°23.271 2°59.886 189.7 0.4 84.6 19.1
2003-02-11 08:44:36 51°23.273 2°59.899 177.9 0.6 79.4 19.1
2003-02-11 08:45:36 51°23.275 2°59.919 167.9 0.9 76.7 18.9
2003-02-11 08:46:39 51°23.281 2°59.948 152.4 1.2 70.6 19.1
2003-02-11 08:47:40 51°23.291 2°59.984 131.3 1.6 64.8 18.9
2003-02-11 08:48:42 51°23.303 3°0.026 138.1 1.6 66.6 18.9
2003-02-11 08:49:42 51°23.31 3°0.06 162 1.2 71.4 18.9
2003-02-11 08:50:42 51°23.315 3°0.081 190.2 0.6 66.9 18.8
2003-02-11 08:51:47 51°23.318 3°0.088 201.7 0.2 71.5 18.9
2003-02-11 08:52:45 51°23.318 3°0.089 202.4 0.1 161.3 18.9
2003-02-11 08:53:47 51°23.315 3°0.089 196.9 0.3 160.3 18.8
2003-02-11 08:54:47 51°23.309 3°0.093 188.3 0.4 153.5 18.6
2003-02-11 08:55:45 51°23.302 3°0.097 195.9 0.5 175.8 18.6
2003-02-11 08:56:47 51°23.294 3°0.091 215.5 0.6 232.8 18.5
2003-02-11 08:57:44 51°23.291 3°0.072 223 0.8 258.5 18.6
2003-02-11 08:58:46 51°23.286 3°0.054 217.9 0.7 246.9 18.6
2003-02-11 08:59:47 51°23.28 3°0.039 212.4 0.6 236 18.6
2003-02-11 09:00:47 51°23.273 3°0.027 209.5 0.6 227.9 18.6
2003-02-11 09:01:46 51°23.268 3°0.015 212 0.6 230.9 18.5
2003-02-11 09:02:45 51°23.261 3°0 216 0.7 239.3 18.6
2003-02-11 09:03:47 51°23.255 2°59.982 218.7 0.8 244.4 18.7
2003-02-11 09:04:46 51°23.249 2°59.966 209.7 0.7 228.4 18.6
2003-02-11 09:05:47 51°23.242 2°59.955 209.3 0.6 226.2 18.6
2003-02-11 09:06:47 51°23.236 2°59.941 213.3 0.7 236.9 18.6
2003-02-11 09:07:47 51°23.231 2°59.923 226 0.8 256.4 18.5
2003-02-11 09:08:46 51°23.232 2°59.895 244.5 1.2 282.3 18.6
2003-02-11 09:09:47 51°23.24 2°59.86 256.9 1.5 295.3 18.8
2003-02-11 09:10:46 51°23.256 2°59.823 270.4 1.7 308.6 19
2003-02-11 09:11:47 51°23.277 2°59.786 278.9 2 314.6 19.4
2003-02-11 09:12:46 51°23.302 2°59.749 288.3 2.1 319 19.4
2003-02-11 09:13:45 51°23.333 2°59.715 302.6 2.5 329.7 19.4
2003-02-11 09:14:46 51°23.374 2°59.688 322.2 2.8 342.3 19.4
2003-02-11 09:15:45 51°23.422 2°59.678 348.6 3.1 359.9 19.5
2003-02-11 09:16:46 51°23.474 2°59.692 16.3 3.1 15.8 19.6
2003-02-11 09:17:46 51°23.522 2°59.724 38.4 3.1 28 19.4
2003-02-11 09:18:45 51°23.562 2°59.768 55.8 2.9 36.4 19.6
2003-02-11 09:19:47 51°23.597 2°59.841 94.1 4.8 73.1 19.6
2003-02-11 09:20:51 51°23.536 2°59.958 164.2 6.4 150.6 19.4
2003-02-11 09:21:51 51°23.435 3°0.076 151.9 8 142.1 19.2
2003-02-11 09:22:51 51°23.332 3°0.143 194.6 4.7 184.7 18.5
2003-02-11 09:23:51 51°23.288 3°0.098 218.9 2.6 223.1 18.3
2003-02-11 09:24:49 51°23.278 3°0.076 211.9 0.6 247.4 18.3
2003-02-11 09:25:52 51°23.274 3°0.063 208.3 0.6 237.1 18.3
2003-02-11 09:26:51 51°23.268 3°0.049 209 0.6 234.5 18.3
2003-02-11 09:27:49 51°23.262 3°0.037 207.6 0.6 231 18.3
2003-02-11 09:28:51 51°23.254 3°0.023 209.3 0.7 232.7 18.4
2003-02-11 09:29:52 51°23.248 3°0.007 212.2 0.7 239.5 18.4
2003-02-11 09:30:51 51°23.241 2°59.991 213.1 0.8 238.2 18.3
2003-02-11 09:31:51 51°23.235 2°59.972 215.9 0.8 244.9 18.3
2003-02-11 09:32:52 51°23.225 2°59.945 225.4 1.1 244.6 18.3
2003-02-11 09:33:52 51°23.234 2°59.822 299.8 6.3 301 18.7
2003-02-11 09:34:52 51°23.342 2°59.797 32.8 7.2 23.9 19.2
2003-02-11 09:35:51 51°23.372 2°59.941 121.1 5.8 102.8 19.1
2003-02-11 09:36:52 51°23.317 3°0.135 124.7 10.2 116.2 18.2
2003-02-11 09:37:51 51°23.233 3°0.453 118.3 13.6 111.4 17
2003-02-11 09:38:52 51°23.149 3°0.796 118.6 13.7 111.3 15.5
2003-02-11 09:39:52 51°23.07 3°1.136 115.1 13.6 108.7 14
2003-02-11 09:40:49 51°23.002 3°1.466 115 13.7 107.6 13
2003-02-11 09:41:52 51°22.926 3°1.828 114.8 13.6 108.3 13.2
2003-02-11 09:42:51 51°22.855 3°2.163 115.3 13.3 109.1 12.3
2003-02-11 09:43:52 51°22.78 3°2.516 114.7 13.7 108.4 11.8
2003-02-11 09:44:52 51°22.706 3°2.859 115.3 13.8 109.2 12.3
2003-02-11 09:45:51 51°22.632 3°3.195 115.1 13.6 109.3 11.1
2003-02-11 09:46:51 51°22.56 3°3.54 111.7 13.7 107.2 12.3
2003-02-11 09:47:51 51°22.499 3°3.889 110.8 13.7 105 12.8
2003-02-11 09:48:52 51°22.432 3°4.244 111.3 13.6 105.8 12.7
2003-02-11 09:49:51 51°22.373 3°4.587 111.2 13.6 105.7 12.8
2003-02-11 09:50:51 51°22.313 3°4.936 110.9 13.6 105.9 12.8
2003-02-11 09:51:52 51°22.249 3°5.287 110.8 13.5 105.8 13.1
2003-02-11 09:52:51 51°22.193 3°5.629 106.8 13.6 101.9 12.9
2003-02-11 09:53:52 51°22.161 3°5.992 103.6 13.6 98 12.9
2003-02-11 09:54:52 51°22.129 3°6.349 104.2 13.5 99.2 12.9
2003-02-11 09:55:51 51°22.1 3°6.696 98.3 13.4 94.3 12.9
2003-02-11 09:56:53 51°22.113 3°7.064 89.1 13.4 84 12.8
2003-02-11 09:57:54 51°22.164 3°7.418 80 13.5 74.8 12.8
2003-02-11 09:58:53 51°22.229 3°7.756 78.1 13.5 73.1 12.9
2003-02-11 09:59:54 51°22.297 3°8.106 78.9 13.6 72.4 13.2
2003-02-11 10:00:54 51°22.377 3°8.442 71.2 13.6 65.8 13.3
2003-02-11 10:01:54 51°22.48 3°8.766 66.7 13.6 61.1 13.6
2003-02-11 10:02:54 51°22.595 3°9.013 49.9 10.3 44.9 13.8
2003-02-11 10:03:54 51°22.712 3°9.192 50.6 9.6 44.2 13.9
2003-02-11 10:04:54 51°22.785 3°9.37 92.4 6.1 79.4 14
2003-02-11 10:05:54 51°22.767 3°9.462 135.7 2.8 125.9 14.1
2003-02-11 10:06:53 51°22.738 3°9.487 177 1.9 175.7 13.9
2003-02-11 10:07:53 51°22.712 3°9.469 202.9 1.7 214.8 14.1
2003-02-11 10:08:53 51°22.704 3°9.446 211.6 1.1 243.7 14.1
2003-02-11 10:09:53 51°22.693 3°9.418 208.3 1.3 235.9 14.2
2003-02-11 10:10:52 51°22.683 3°9.392 206.9 1 244.1 14.1
2003-02-11 10:11:54 51°22.678 3°9.369 206.7 0.9 253.6 13.9
2003-02-11 10:12:54 51°22.677 3°9.349 206.8 0.8 267.3 13.8
2003-02-11 10:13:54 51°22.677 3°9.33 206.2 0.7 277.6 13.7
2003-02-11 10:14:53 51°22.68 3°9.312 206.5 0.7 286.8 13.9
2003-02-11 10:15:54 51°22.685 3°9.293 207.8 0.7 293 13.9
2003-02-11 10:16:54 51°22.69 3°9.276 208.3 0.7 297.9 14
2003-02-11 10:17:54 51°22.696 3°9.259 209.9 0.8 301.1 13.9
2003-02-11 10:18:54 51°22.703 3°9.24 212.5 0.8 294.2 13.9
2003-02-11 10:19:54 51°22.705 3°9.218 206.8 0.8 269.2 13.9
2003-02-11 10:20:53 51°22.702 3°9.197 196.3 0.8 248.4 13.8
2003-02-11 10:21:54 51°22.696 3°9.179 185.8 0.8 235.2 13.8
2003-02-11 10:22:54 51°22.687 3°9.165 177 0.7 224.3 13.8
2003-02-11 10:23:54 51°22.679 3°9.153 167.5 0.6 214.8 13.8
2003-02-11 10:24:53 51°22.67 3°9.148 155.1 0.5 197.2 13.8
2003-02-11 10:25:54 51°22.662 3°9.148 138.8 0.5 157 13.7
2003-02-11 10:26:52 51°22.651 3°9.178 114.2 1.9 108 13.8
2003-02-11 10:27:54 51°22.649 3°9.208 109.4 0.9 86.9 13.9
2003-02-11 10:28:54 51°22.652 3°9.229 99.8 0.8 70.8 13.9
2003-02-11 10:29:52 51°22.659 3°9.246 88.8 0.8 47.9 13.9
2003-02-11 10:30:54 51°22.671 3°9.262 81.7 0.9 37.8 13.9
2003-02-11 10:31:53 51°22.683 3°9.276 79.7 0.9 37.1 13.9
2003-02-11 10:32:54 51°22.695 3°9.289 75.6 0.9 26.9 13.8
2003-02-11 10:33:53 51°22.71 3°9.298 68 1 20 13.7
2003-02-11 10:34:54 51°22.725 3°9.305 66.2 0.9 14.2 13.8
2003-02-11 10:35:54 51°22.74 3°9.31 65.1 0.9 8.5 13.8
2003-02-11 10:36:52 51°22.755 3°9.312 63.6 0.9 3.7 13.8
2003-02-11 10:37:54 51°22.769 3°9.312 64.9 0.8 2.9 13.8
2003-02-11 10:38:54 51°22.782 3°9.315 70.2 0.8 7.8 13.7
2003-02-11 10:39:54 51°22.797 3°9.323 77.6 1 30.9 13.8
2003-02-11 10:40:52 51°22.807 3°9.342 89.5 1.1 55.4 13.8
2003-02-11 10:41:54 51°22.815 3°9.368 103.6 1 76.6 13.9
2003-02-11 10:42:53 51°22.814 3°9.392 120.4 0.9 108 13.8
2003-02-11 10:43:52 51°22.804 3°9.409 143.9 1 156.2 13.8
2003-02-11 10:44:54 51°22.785 3°9.411 172.8 1.2 187.9 13.9
2003-02-11 10:45:54 51°22.763 3°9.389 203.9 1.8 222.2 13.8
2003-02-11 10:46:54 51°22.746 3°9.342 231.2 2.2 244.9 13.7
2003-02-11 10:47:53 51°22.735 3°9.282 250.6 2.5 258.7 13.6
2003-02-11 10:48:54 51°22.733 3°9.209 272.1 2.8 273.1 13.6
2003-02-11 10:49:53 51°22.745 3°9.135 295.4 3 291.7 13.6
2003-02-11 10:50:54 51°22.777 3°9.032 301.1 5.5 297.1 13.5
2003-02-11 10:51:54 51°22.837 3°8.852 303.2 10.6 298.8 13.5
2003-02-11 10:52:54 51°22.947 3°8.539 303.3 14.2 299.1 13.1
2003-02-11 10:53:54 51°23.063 3°8.207 303.9 14.3 299.3 12.3
2003-02-11 10:54:54 51°23.153 3°7.859 288.9 14.3 285.3 12
2003-02-11 10:55:54 51°23.211 3°7.491 287.7 14.2 284.3 12.3
2003-02-11 10:56:53 51°23.273 3°7.134 288.6 14.2 285.6 12.4
2003-02-11 10:57:53 51°23.336 3°6.77 288.7 14.2 285.8 12.6
2003-02-11 10:58:54 51°23.4 3°6.397 288.7 14.2 285.7 12.7
2003-02-11 10:59:53 51°23.463 3°6.039 289.1 14.2 286.3 12.9
2003-02-11 11:00:54 51°23.56 3°5.688 300.3 14.3 296.7 13.1
2003-02-11 11:01:54 51°23.683 3°5.367 315.6 14.2 309.3 13.4
2003-02-11 11:02:54 51°23.886 3°5.191 352.7 14.1 346.4 15.3
2003-02-11 11:03:54 51°24.122 3°5.136 358.6 14.4 352.7 18.5
2003-02-11 11:04:54 51°24.36 3°5.108 2.1 14.4 356.3 16.3
2003-02-11 11:05:54 51°24.576 3°5.087 2.2 12 356.8 13.1
2003-02-11 11:06:52 51°24.76 3°5.07 1.9 11 357.1 13.7
2003-02-11 11:07:52 51°24.94 3°5.056 4.4 10.7 358.7 13.6
2003-02-11 11:08:53 51°25.121 3°5.074 10.2 10.7 4.6 12.8
2003-02-11 11:09:54 51°25.297 3°5.12 25.1 10.5 18.1 12.1
2003-02-11 11:10:54 51°25.46 3°5.225 29 10.5 22.4 11.9
2003-02-11 11:11:54 51°25.621 3°5.336 34.4 10.5 26.8 11.5
2003-02-11 11:12:54 51°25.768 3°5.485 40.3 10.4 33.2 11
2003-02-11 11:13:53 51°25.911 3°5.636 39.9 10.4 33.1 11
2003-02-11 11:14:54 51°26.06 3°5.79 39.5 10.5 32.6 10.5
2003-02-11 11:15:54 51°26.207 3°5.942 39.9 10.5 32.8 11.1
2003-02-11 11:16:54 51°26.353 3°6.094 39.8 10.5 33.4 11
2003-02-11 11:17:52 51°26.489 3°6.255 49.6 10.4 42.2 11.7
2003-02-11 11:18:54 51°26.62 3°6.451 50.3 10.4 42.6 11.8
2003-02-11 11:19:53 51°26.746 3°6.634 49.7 10.4 42.1 11.9
2003-02-11 11:20:54 51°26.876 3°6.824 50 10.4 42.3 12.1
2003-02-11 11:21:55 51°27.006 3°7.011 49.6 10.3 41.9 12.3
2003-02-11 11:22:54 51°27.132 3°7.193 49.8 10.4 42.4 12.4
2003-02-11 11:23:55 51°27.263 3°7.381 49.6 10.4 42.1 12.4
2003-02-11 11:24:55 51°27.392 3°7.566 49.3 10.4 42.1 12.2
2003-02-11 11:25:53 51°27.515 3°7.745 51.6 10.3 43.9 11.5
2003-02-11 11:26:55 51°27.64 3°7.945 52.1 10.3 44.6 11.7
2003-02-11 11:27:55 51°27.762 3°8.135 52 10 44.4 12.5
2003-02-11 11:28:55 51°27.855 3°8.281 53.1 7.1 44 13.4
2003-02-11 11:29:55 51°27.932 3°8.398 52.1 6.1 42.3 13.6
2003-02-11 11:30:55 51°28.005 3°8.505 52.3 5.9 42.1 13.9
2003-02-11 11:31:55 51°28.092 3°8.636 52.2 8.2 43.6 14
2003-02-11 11:32:55 51°28.182 3°8.809 77.8 8.3 66.4 14.3
2003-02-11 11:33:55 51°28.171 3°8.99 113 5.9 103.5 13.9
2003-02-11 11:34:55 51°28.18 3°9.107 79.9 3.5 66.1 14.1
2003-02-11 11:35:55 51°28.205 3°9.136 39.9 1.6 20.1 14
2003-02-11 11:36:55 51°28.235 3°9.141 24.2 1.9 3 14.1
2003-02-11 11:37:55 51°28.272 3°9.156 47.4 2.7 23.5 14.3
2003-02-11 11:38:55 51°28.299 3°9.23 100.9 3.7 82.2 14.3
2003-02-11 11:39:55 51°28.274 3°9.303 154.1 2 142.2 13.8
2003-02-11 11:40:54 51°28.257 3°9.308 180.2 0.9 189 13.7
2003-02-11 11:41:54 51°28.247 3°9.296 189.9 0.8 228.1 13.9
2003-02-11 11:42:54 51°28.24 3°9.278 193 0.8 243.2 13.9
2003-02-11 11:43:55 51°28.236 3°9.259 192.2 0.7 247.2 14
2003-02-11 11:44:55 51°28.231 3°9.242 190.7 0.7 249.2 13.9
2003-02-11 11:45:54 51°28.228 3°9.225 187.7 0.6 249 13.9
2003-02-11 11:46:53 51°28.224 3°9.21 184.6 0.6 249.1 13.8
2003-02-11 11:47:53 51°28.222 3°9.197 180.2 0.5 249.7 14.1
2003-02-11 11:48:55 51°28.219 3°9.184 176.2 0.4 249.4 13.9
2003-02-11 11:49:55 51°28.215 3°9.175 170.5 0.4 231.8 13.9
2003-02-11 11:50:54 51°28.21 3°9.17 164.3 0.3 203.9 13.9
2003-02-11 11:51:55 51°28.203 3°9.169 161 0.5 173.1 13.8
2003-02-11 11:52:55 51°28.193 3°9.171 164.9 0.7 179.1 13.8
2003-02-11 11:53:55 51°28.181 3°9.167 180.1 0.8 200.2 13.8
2003-02-11 11:54:56 51°28.167 3°9.152 190.6 1.1 216.1 13.8
2003-02-11 11:55:56 51°28.152 3°9.132 193.7 1.2 220.2 13.6
2003-02-11 11:56:55 51°28.137 3°9.114 185.5 1.1 212 13.7
2003-02-11 11:57:56 51°28.121 3°9.1 182.1 1.1 204.4 13.7
2003-02-11 11:58:56 51°28.105 3°9.091 174.1 0.9 198.6 13.8
2003-02-11 11:59:56 51°28.095 3°9.084 169 0.6 204.9 13.8
2003-02-11 12:00:56 51°28.089 3°9.078 168.5 0.4 221.4 13.8
2003-02-11 12:01:56 51°28.085 3°9.069 174.9 0.4 244.5 13.8
2003-02-11 12:02:56 51°28.081 3°9.057 186.1 0.6 240 13.8
2003-02-11 12:03:55 51°28.076 3°9.039 203.8 0.9 243.2 13.8
2003-02-11 12:04:56 51°28.068 3°9.011 222.4 1.3 248.1 13.9
2003-02-11 12:05:56 51°28.061 3°8.966 245.3 2 258.4 13.8
2003-02-11 12:06:56 51°28.062 3°8.903 277.2 2.6 280.7 13.9
2003-02-11 12:07:55 51°28.084 3°8.841 312.3 2.9 310.3 14.1
2003-02-11 12:08:55 51°28.124 3°8.798 339.7 3 334.5 14
2003-02-11 12:09:56 51°28.176 3°8.774 355.5 3.3 348 14.2
2003-02-11 12:10:56 51°28.233 3°8.769 10.8 3.5 359.8 14.3
2003-02-11 12:11:56 51°28.29 3°8.786 26.9 3.4 15.6 14.3
2003-02-11 12:12:56 51°28.337 3°8.82 42 2.9 28.6 14.4
2003-02-11 12:13:55 51°28.373 3°8.859 54.8 2.4 38.6 14.5
2003-02-11 12:14:56 51°28.402 3°8.9 55.4 2.2 39.6 14.7
2003-02-11 12:15:56 51°28.461 3°8.926 2.3 5.4 2.6 14.7
2003-02-11 12:16:53 51°28.556 3°8.755 288.7 10.9 287 14.6
2003-02-11 12:17:57 51°28.558 3°8.424 268.2 12.5 266.9 13.5
2003-02-11 12:18:56 51°28.555 3°8.06 271.8 14.1 269.5 14.4
2003-02-11 12:19:58 51°28.554 3°7.671 271.6 14.1 269.3 15.2
2003-02-11 12:20:56 51°28.553 3°7.309 272.1 14.1 269.7 15.5
2003-02-11 12:21:57 51°28.552 3°6.928 272.1 14.1 269.4 15.5
2003-02-11 12:22:56 51°28.55 3°6.558 271.8 14.1 269.2 15.9
2003-02-11 12:23:57 51°28.548 3°6.175 272.6 14.1 269.6 16
2003-02-11 12:24:58 51°28.548 3°5.793 272.5 14.1 269.8 15.8
2003-02-11 12:25:56 51°28.545 3°5.431 272.4 14 269.1 16.3
2003-02-11 12:26:58 51°28.542 3°5.046 272.2 14 269.3 18.3
2003-02-11 12:27:57 51°28.54 3°4.678 272.5 14 269.8 20
2003-02-11 12:28:56 51°28.528 3°4.368 254.5 9.4 254 21.2
2003-02-11 12:29:57 51°28.486 3°4.149 253.9 8.1 253.6 21.7
2003-02-11 12:30:58 51°28.449 3°3.949 271.4 7.6 257.2 22
2003-02-11 12:31:57 51°28.517 3°3.795 319.7 7.6 315.8 22.8
2003-02-11 12:32:57 51°28.616 3°3.663 338.1 7.7 326.3 23.3
2003-02-11 12:33:56 51°28.697 3°3.674 39.7 4.1 29.9 23.4
2003-02-11 12:34:56 51°28.726 3°3.758 87 2.5 73.4 23.5
2003-02-11 12:35:57 51°28.737 3°3.794 78.5 1.4 61.1 23.4
2003-02-11 12:36:57 51°28.748 3°3.818 79.6 1.1 52.6 23.4
2003-02-11 12:37:58 51°28.758 3°3.84 82 1 52.2 23.4
2003-02-11 12:38:58 51°28.765 3°3.863 95 1 64.1 23.4
2003-02-11 12:39:58 51°28.769 3°3.886 111.3 0.9 80.9 23.2
2003-02-11 12:40:58 51°28.769 3°3.907 123.4 0.8 93.2 23.3
2003-02-11 12:41:58 51°28.766 3°3.926 133.9 0.7 106.6 23.2
2003-02-11 12:42:58 51°28.761 3°3.941 145.9 0.6 123.4 23.2
2003-02-11 12:43:58 51°28.754 3°3.951 160.4 0.6 144.4 23.2
2003-02-11 12:44:58 51°28.744 3°3.955 177.6 0.6 173.6 23.1
2003-02-11 12:45:58 51°28.735 3°3.951 199.2 0.6 207.2 23.1
2003-02-11 12:46:57 51°28.727 3°3.937 221.2 0.8 236.7 23.1
2003-02-11 12:47:58 51°28.721 3°3.915 235.1 1 250 23.2
2003-02-11 12:48:55 51°28.718 3°3.891 239.1 1 260 23.1
2003-02-11 12:49:58 51°28.715 3°3.866 237.9 0.9 261.7 23.3
2003-02-11 12:50:58 51°28.713 3°3.844 236 0.8 260.9 23.3
2003-02-11 12:51:56 51°28.711 3°3.825 235.2 0.7 264 23.2
2003-02-11 12:52:56 51°28.71 3°3.806 235 0.7 265 23.3
2003-02-11 12:53:56 51°28.71 3°3.786 233.5 0.6 263.8 23.4
2003-02-11 12:54:55 51°28.71 3°3.771 229 0.6 266 23.3
2003-02-11 12:55:56 51°28.709 3°3.756 226 0.5 264.7 23.3
2003-02-11 12:56:58 51°28.709 3°3.743 224.2 0.5 264.9 23.4
2003-02-11 12:57:58 51°28.708 3°3.73 222.5 0.5 266.9 23.2
2003-02-11 12:58:58 51°28.707 3°3.717 221.8 0.5 264.7 23.3
2003-02-11 12:59:58 51°28.706 3°3.703 221.2 0.5 265.3 23.4
2003-02-11 13:00:57 51°28.706 3°3.69 220.2 0.5 267.2 23.5
2003-02-11 13:01:58 51°28.706 3°3.676 217.9 0.5 269.5 23.4
2003-02-11 13:02:58 51°28.706 3°3.663 214.8 0.5 270.8 23.4
2003-02-11 13:03:58 51°28.705 3°3.651 217.4 0.5 263 23.3
2003-02-11 13:04:56 51°28.704 3°3.639 226.4 0.5 263.6 23.4
2003-02-11 13:05:57 51°28.704 3°3.626 238.7 0.5 267 23.5
2003-02-11 13:06:58 51°28.704 3°3.611 249.4 0.6 270.7 23.4
2003-02-11 13:07:58 51°28.705 3°3.595 258.3 0.6 276.2 23.4
2003-02-11 13:08:57 51°28.706 3°3.579 267.4 0.6 283 23.4
2003-02-11 13:09:58 51°28.709 3°3.56 277.1 0.8 286.3 23.4
2003-02-11 13:10:56 51°28.716 3°3.529 294.3 1.6 291.9 23.5
2003-02-11 13:11:58 51°28.734 3°3.482 314.8 2.3 306.2 23.7
2003-02-11 13:12:58 51°28.764 3°3.432 321.7 2.7 316.1 23.5
2003-02-11 13:13:58 51°28.801 3°3.38 326.8 3 321.2 23.5
2003-02-11 13:14:56 51°28.842 3°3.34 341.4 3 334.4 23.4
2003-02-11 13:15:57 51°28.89 3°3.317 358.5 3 350.3 23.5
2003-02-11 13:17:02 51°28.946 3°3.318 16.4 3.3 7.5 23.3
2003-02-11 13:18:02 51°28.995 3°3.344 33.2 3.1 25.3 23.5
2003-02-11 13:19:02 51°29.037 3°3.388 48.6 2.8 39.7 23
2003-02-11 13:20:02 51°29.065 3°3.437 61.3 2.3 52.6 23.3
2003-02-11 13:21:06 51°29.084 3°3.49 73.4 2 64.1 23.6
2003-02-11 13:22:06 51°29.095 3°3.537 82.3 1.8 73.4 23.5
2003-02-11 13:23:07 51°29.101 3°3.578 89.8 1.4 80.1 23.7
2003-02-11 13:24:06 51°29.104 3°3.61 94.9 1.1 84.7 23.6
2003-02-11 13:25:07 51°29.105 3°3.639 100.1 1 88.7 23.6
2003-02-11 13:26:05 51°29.103 3°3.66 104.8 0.8 96.4 23.6
2003-02-11 13:27:07 51°29.097 3°3.688 112.9 1.3 103.8 23.7
2003-02-11 13:28:05 51°29.054 3°3.748 160.7 4.4 157.4 23.6
2003-02-11 13:29:07 51°28.983 3°3.746 196.6 3.9 190 23.5
2003-02-11 13:30:05 51°28.932 3°3.704 216.4 3.8 215.3 23.5
2003-02-11 13:31:07 51°28.881 3°3.628 227.6 4.2 225.7 23.5
2003-02-11 13:32:06 51°28.836 3°3.548 228.1 4.1 227.4 23.6
2003-02-11 13:33:07 51°28.79 3°3.466 227.6 4.1 227.8 23.5
2003-02-11 13:34:06 51°28.745 3°3.389 225.8 4 225.7 23.5
2003-02-11 13:35:06 51°28.698 3°3.314 224.4 4 224.7 23.6
2003-02-11 13:36:07 51°28.649 3°3.24 222.8 4 222.5 23.6
2003-02-11 13:37:06 51°28.601 3°3.17 222.2 4 222 23.6
2003-02-11 13:38:07 51°28.55 3°3.099 221.4 4 221.2 23.6
2003-02-11 13:39:06 51°28.501 3°3.031 220.9 4 220.9 23.5
2003-02-11 13:40:07 51°28.449 3°2.963 217.4 3.9 218 23.6
2003-02-11 13:41:12 51°28.392 3°2.896 213.7 3.9 214.5 23.7
2003-02-11 13:42:12 51°28.337 3°2.839 211.3 3.9 212.1 23.7
2003-02-11 13:43:11 51°28.282 3°2.785 209.6 3.9 210.4 23.7
2003-02-11 13:44:16 51°28.22 3°2.729 208.8 4 209.1 23.6
2003-02-11 13:45:17 51°28.161 3°2.676 209 4 209.3 23.5
2003-02-11 13:46:17 51°28.103 3°2.621 209.9 4 211 23.7
2003-02-11 13:47:22 51°28.041 3°2.561 209.5 4 210.4 23.6
2003-02-11 13:48:22 51°27.983 3°2.507 209.2 4 210.6 23.5
2003-02-11 13:49:22 51°27.925 3°2.452 209.1 4.1 210.2 23.3
2003-02-11 13:50:22 51°27.867 3°2.398 208.5 4.1 210 23.1
2003-02-11 13:51:22 51°27.811 3°2.335 218.8 4.1 218.7 23.1
2003-02-11 13:52:22 51°27.763 3°2.253 236.3 4.2 232 23.2
2003-02-11 13:53:22 51°27.729 3°2.153 246.3 4.3 244 23.1
2003-02-11 13:54:22 51°27.698 3°2.049 246 4.3 243.9 23
2003-02-11 13:55:26 51°27.663 3°1.941 243.7 4.3 241.3 23.2
2003-02-11 13:56:26 51°27.634 3°1.842 257.2 3.9 248.8 23.4
2003-02-11 13:57:30 51°27.624 3°1.745 278.5 3.3 267.3 23
2003-02-11 13:58:30 51°27.627 3°1.668 291.6 2.6 277.1 23.7
2003-02-11 13:59:31 51°27.633 3°1.607 297.8 2.2 281.4 23.3
2003-02-11 14:00:31 51°27.64 3°1.555 300.1 1.9 282.9 23.4
2003-02-11 14:01:31 51°27.647 3°1.508 301.3 1.7 283.8 23.6
2003-02-11 14:02:30 51°27.657 3°1.461 315.2 2.2 296.3 23.6
2003-02-11 14:03:30 51°27.693 3°1.431 17.9 2.7 2.4 23.7
2003-02-11 14:04:30 51°27.72 3°1.494 95 4 91.5 23.7
2003-02-11 14:05:34 51°27.611 3°1.538 192.7 10.3 189.9 23.3
2003-02-11 14:06:36 51°27.381 3°1.483 193 14.2 190.9 22.2
2003-02-11 14:07:36 51°27.147 3°1.425 188.1 14.2 188 18.9
2003-02-11 14:08:39 51°26.899 3°1.367 188.4 14.3 188.3 16.1
2003-02-11 14:09:39 51°26.664 3°1.311 188.9 14.2 188 15.6
2003-02-11 14:10:38 51°26.434 3°1.258 189.1 14.2 188.5 13.2
2003-02-11 14:11:38 51°26.2 3°1.204 188.3 14.2 187.5 12.1
2003-02-11 14:12:39 51°25.959 3°1.151 187.6 14.4 187 11.7
2003-02-11 14:13:39 51°25.722 3°1.117 186.1 14.3 184.8 12.2
2003-02-11 14:14:39 51°25.487 3°1.086 185.9 14.1 184.3 13.1
2003-02-11 14:15:39 51°25.252 3°1.056 185.7 14.3 184.6 13.4
2003-02-11 14:16:37 51°25.024 3°1.026 186.5 14.1 184.3 14.2
2003-02-11 14:17:39 51°24.782 3°0.992 186.2 14.1 185.1 18.4
2003-02-11 14:18:38 51°24.551 3°0.957 185.8 14.3 185 16.7
2003-02-11 14:19:38 51°24.315 3°0.921 186 14.2 185 16.3
2003-02-11 14:20:37 51°24.083 3°0.885 186.5 14.3 185.8 17.8
2003-02-11 14:21:36 51°23.85 3°0.85 186.2 14.3 185.6 18
2003-02-11 14:22:39 51°23.602 3°0.808 186.6 14.2 186.1 17.1
2003-02-11 14:23:39 51°23.367 3°0.769 185.9 14.2 185.9 15.7
2003-02-11 14:24:38 51°23.134 3°0.73 186 14.3 185.6 14.4
2003-02-11 14:25:38 51°22.899 3°0.691 186.4 14.3 185.9 13
2003-02-11 14:26:38 51°22.664 3°0.647 189.1 14.1 188.8 12.2
2003-02-11 14:27:39 51°22.428 3°0.58 190.1 14.2 189.9 11.2
2003-02-11 14:28:37 51°22.201 3°0.511 192.4 14.5 192 11.1
2003-02-11 14:29:35 51°21.976 3°0.415 195.8 14.5 195.6 11
2003-02-11 14:30:38 51°21.732 3°0.307 195 14.4 195.1 11
2003-02-11 14:31:38 51°21.502 3°0.204 194.9 14.3 195.5 11.1
2003-02-11 14:32:39 51°21.279 3°0.102 194.6 12.2 195.8 11.1
2003-02-11 14:33:39 51°21.135 3°0.007 219 8.6 215.9 11.3
2003-02-11 14:34:39 51°21.067 2°59.827 251.7 7.8 245.7 11.3
2003-02-11 14:35:39 51°21.069 2°59.636 292.8 6.9 282 11.3
2003-02-11 14:36:38 51°21.098 2°59.513 319.3 3.6 296.8 11.4
2003-02-11 14:37:38 51°21.109 2°59.465 336.9 1.3 273.8 11.3
2003-02-11 14:38:38 51°21.112 2°59.434 346.9 1.1 281.9 11.4
2003-02-11 14:39:38 51°21.129 2°59.4 344.6 3.4 327.3 11.4
2003-02-11 14:40:38 51°21.177 2°59.193 270.4 11.9 267 11.3
2003-02-11 14:41:39 51°21.052 2°58.879 236.8 14.6 234.8 11.4
2003-02-11 14:42:38 51°20.914 2°58.564 239.5 14.8 237 11.4
2003-02-11 14:43:38 51°20.774 2°58.24 236.5 14.8 234.4 11.5
2003-02-11 14:44:38 51°20.633 2°57.916 235.9 14.8 234.8 11.5
2003-02-11 14:45:38 51°20.489 2°57.598 240.1 14.8 237.5 11.7
2003-02-11 14:46:35 51°20.361 2°57.284 239.5 14.8 237.2 11.6
2003-02-11 14:47:38 51°20.221 2°56.936 240 14.9 237.4 11.7
2003-02-11 14:48:39 51°20.087 2°56.597 240.2 14.9 237.8 11.8
2003-02-11 14:49:38 51°19.957 2°56.27 240 14.8 237.7 11.8
2003-02-11 14:50:35 51°19.828 2°55.959 237.9 14.8 235.6 11.9
2003-02-11 14:51:39 51°19.68 2°55.614 238.4 14.8 235.8 11.8
2003-02-11 14:52:38 51°19.543 2°55.297 236.8 14.7 234.7 11.8
2003-02-11 14:53:35 51°19.409 2°54.992 236.8 14.8 234.7 11.8
2003-02-11 14:54:39 51°19.258 2°54.65 237.3 14.8 234.6 11.7
2003-02-11 14:55:39 51°19.116 2°54.328 237 14.8 234.8 11.6
2003-02-11 14:56:39 51°18.97 2°54.012 235.1 14.8 232.7 11.5
2003-02-11 14:57:39 51°18.821 2°53.699 235.1 14.8 232.5 11.4
2003-02-11 14:58:35 51°18.68 2°53.407 233.4 14.9 231.1 11.3
2003-02-11 14:59:39 51°18.506 2°53.09 228.8 14.9 226.8 11.1
2003-02-11 15:00:39 51°18.329 2°52.818 221.1 14.8 219.7 10.9
2003-02-11 15:01:39 51°18.123 2°52.606 210.9 14.8 210.6 10.5
2003-02-11 15:02:42 51°17.881 2°52.47 192.9 14.7 193.2 10.3
2003-02-11 15:03:44 51°17.631 2°52.411 183.2 14.7 185 10.3
2003-02-11 15:04:44 51°17.388 2°52.404 176.7 14.6 180.4 10
2003-02-11 15:05:43 51°17.156 2°52.465 163.3 14.4 165.2 9.7
2003-02-11 15:06:49 51°16.903 2°52.583 157.7 14.5 160.2 9.8
2003-02-11 15:07:54 51°16.662 2°52.73 158.2 14.5 159.7 11.1
2003-02-11 15:09:03 51°16.409 2°52.893 156 14.1 157.2 12.3
2003-02-11 15:10:01 51°16.2 2°53.027 156.8 14 158.4 12.3
2003-02-11 15:11:03 51°15.978 2°53.169 156.7 14.1 158.1 12
2003-02-11 15:12:03 51°15.761 2°53.307 157 14 158.3 11.5
2003-02-11 15:13:04 51°15.544 2°53.452 153.7 13.9 155.5 10.8
2003-02-11 15:14:03 51°15.34 2°53.606 150.3 13.7 151.9 10
2003-02-11 15:15:03 51°15.17 2°53.835 131.7 13.3 132.5 9.4
2003-02-11 15:16:03 51°15.02 2°54.1 132.4 13.4 133.1 8.8
2003-02-11 15:17:02 51°14.884 2°54.332 133.5 10.7 135.1 9.3
2003-02-11 15:18:02 51°14.772 2°54.498 134.4 8.1 136.7 9.8
2003-02-11 15:19:04 51°14.683 2°54.637 133.6 6.8 135.5 9.7
2003-02-11 15:20:09 51°14.579 2°54.798 137.1 10.1 137.4 9.7
2003-02-11 15:21:09 51°14.443 2°54.993 137.2 11.3 137.4 10
2003-02-11 15:22:09 51°14.306 2°55.199 141.5 11 138.6 -999